Marieville, Canada
Current Conditions -  °F | °C
As of 9:00 PM on Thursday 20 Nov 2014 (Local Time) from CYHU Reporting Station
Broken Clouds Broken Clouds  
Wind Chill: 15°   Ceiling: 12000
Heat Index: 27°   Visibility: 9mi
Dew Point: 14°   Wind: 15mph
Humidity: 59%   Direction: 220°SW
Pressure: 29.77"   Gusts: NA
Location:  45.43°N, 73.17°W
Report Text: CYHU 210200Z AUTO 22013KT 9SM BKN120 M03/M10 A2977 RMK SLP082
Loading
Personal Weather Stations






























Interactive Weather Map New forecast layout! Learn more

10-Day Weather Forecast

Advertisements
Track Severe Weather on mobile